Time;durP1;ratioP1;P1;durP2;ratioP2;P2;SDS_P1;SDS_P2;PMS_P1;PMS_P2;Temp;Humidity;BMP_temperature;BMP_pressure;BME280_temperature;BME280_humidity;BME280_pressure;Samples;Min_cycle;Max_cycle;Signal;HPM_P1;HPM_P2
2022/04/27 04:01:29;;;;;;;33.38;16.65;;;7.60;99.90;;;;;;5505259;23;20054;-74
2022/04/27 04:03:56;;;;;;;35.10;17.58;;;7.60;99.90;;;;;;4995323;28;20043;-74
2022/04/27 04:06:21;;;;;;;35.22;18.92;;;7.60;99.90;;;;;;4995598;28;20388;-74
2022/04/27 04:08:47;;;;;;;36.65;19.67;;;7.60;99.90;;;;;;4995860;28;20050;-74
2022/04/27 04:11:12;;;;;;;44.17;19.05;;;7.60;99.90;;;;;;4995648;28;20035;-73
2022/04/27 04:13:38;;;;;;;52.65;21.13;;;7.60;99.90;;;;;;4995192;28;20042;-74
2022/04/27 04:16:04;;;;;;;37.75;19.25;;;7.60;99.90;;;;;;5018151;23;20122;-77
2022/04/27 04:18:29;;;;;;;39.03;20.15;;;7.70;99.90;;;;;;4996166;28;20038;-77
2022/04/27 04:20:55;;;;;;;39.38;20.50;;;7.70;99.90;;;;;;4995646;28;20034;-77
2022/04/27 04:23:20;;;;;;;50.75;21.58;;;7.80;99.90;;;;;;4993527;28;20038;-77
2022/04/27 04:28:30;;;;;;;42.75;21.65;;;7.90;99.90;;;;;;4995902;28;20069;-77
2022/04/27 04:31:00;;;;;;;41.28;22.70;;;8.00;99.90;;;;;;4995411;28;20062;-77
2022/04/27 04:33:26;;;;;;;40.13;22.42;;;8.10;99.90;;;;;;4994996;28;20031;-77
2022/04/27 04:35:52;;;;;;;45.63;25.40;;;8.10;99.90;;;;;;4993587;28;20373;-77
2022/04/27 04:38:18;;;;;;;52.17;27.48;;;8.20;99.90;;;;;;4995192;28;20059;-77
2022/04/27 04:40:44;;;;;;;43.75;24.65;;;8.20;99.90;;;;;;4995173;28;20035;-77
2022/04/27 04:43:09;;;;;;;50.67;25.17;;;8.30;99.90;;;;;;4995217;28;20037;-77
2022/04/27 04:45:35;;;;;;;38.95;22.40;;;8.30;99.90;;;;;;4993634;28;20035;-77
2022/04/27 04:48:01;;;;;;;47.00;24.05;;;8.30;99.90;;;;;;4994178;28;20045;-77
2022/04/27 04:50:26;;;;;;;40.33;23.35;;;8.40;99.90;;;;;;4995482;28;20031;-77
2022/04/27 04:52:52;;;;;;;35.15;21.30;;;8.40;99.90;;;;;;4995412;28;20058;-77
2022/04/27 04:55:17;;;;;;;35.95;20.90;;;8.30;99.90;;;;;;4995025;28;20051;-77
2022/04/27 04:57:43;;;;;;;36.35;21.10;;;8.30;99.90;;;;;;4994084;28;20031;-77
2022/04/27 05:00:09;;;;;;;33.63;20.23;;;8.20;99.90;;;;;;4995318;28;20042;-77
2022/04/27 05:02:36;;;;;;;33.65;18.65;;;8.20;99.90;;;;;;4994752;28;20110;-77
2022/04/27 05:05:05;;;;;;;32.75;17.92;;;8.20;99.90;;;;;;4994766;28;20037;-77
2022/04/27 05:07:32;;;;;;;38.85;19.60;;;8.30;99.90;;;;;;4993736;28;20027;-77
2022/04/27 05:09:57;;;;;;;32.85;18.38;;;8.30;99.90;;;;;;4995094;28;20042;-77
2022/04/27 05:12:23;;;;;;;36.28;19.85;;;8.20;99.90;;;;;;4995114;28;20501;-77
2022/04/27 05:14:49;;;;;;;41.47;20.20;;;8.20;99.90;;;;;;4994863;28;20480;-77
2022/04/27 05:17:15;;;;;;;35.28;20.42;;;8.30;99.90;;;;;;4993253;28;20035;-77
2022/04/27 05:19:42;;;;;;;34.47;19.23;;;8.40;99.90;;;;;;4994798;28;20035;-77
2022/04/27 05:22:07;;;;;;;33.65;18.65;;;8.50;99.90;;;;;;4994467;28;20031;-77
2022/04/27 05:24:33;;;;;;;33.15;19.45;;;8.50;99.90;;;;;;4994613;28;20045;-77
2022/04/27 05:26:58;;;;;;;34.10;20.70;;;8.70;99.90;;;;;;4994678;28;20065;-77
2022/04/27 05:32:10;;;;;;;32.15;20.35;;;8.90;99.90;;;;;;5001869;28;20067;-77
2022/04/27 05:34:36;;;;;;;28.60;18.95;;;8.90;99.90;;;;;;5002678;28;20101;-77
2022/04/27 05:37:01;;;;;;;31.88;19.08;;;8.90;99.90;;;;;;4994300;28;20035;-77
2022/04/27 05:39:27;;;;;;;26.73;18.33;;;8.90;99.90;;;;;;5004250;28;20050;-77
2022/04/27 05:41:53;;;;;;;25.05;17.27;;;8.90;99.90;;;;;;4999120;28;20118;-80
2022/04/27 05:44:23;;;;;;;28.88;18.27;;;8.80;99.90;;;;;;5017754;28;20039;-79
2022/04/27 05:46:50;;;;;;;24.88;17.85;;;8.90;99.90;;;;;;4996085;28;20524;-80
2022/04/27 05:49:15;;;;;;;27.63;18.77;;;8.90;99.90;;;;;;4994200;28;20027;-79
2022/04/27 05:51:41;;;;;;;26.02;17.58;;;9.00;99.90;;;;;;4994478;28;20493;-79
2022/04/27 05:54:07;;;;;;;22.02;16.05;;;9.20;99.90;;;;;;4995081;28;20481;-79
2022/04/27 05:56:33;;;;;;;26.45;17.85;;;9.30;99.90;;;;;;4995158;28;20496;-79
2022/04/27 05:58:59;;;;;;;23.63;16.48;;;9.50;99.90;;;;;;4994301;28;20038;-79
2022/04/27 06:01:25;;;;;;;24.80;16.00;;;9.60;99.90;;;;;;4994380;28;20043;-79
2022/04/27 06:03:51;;;;;;;19.25;14.80;;;9.60;99.90;;;;;;4995928;28;20489;-79
2022/04/27 06:06:16;;;;;;;21.10;14.93;;;9.60;99.90;;;;;;4993853;28;20041;-79
2022/04/27 06:08:42;;;;;;;20.67;15.32;;;9.70;99.90;;;;;;4995662;28;20101;-79
2022/04/27 06:11:08;;;;;;;23.75;15.63;;;9.60;99.90;;;;;;4996161;28;20047;-79
2022/04/27 06:13:33;;;;;;;22.08;16.55;;;9.60;99.90;;;;;;4997541;28;20171;-79
2022/04/27 06:15:59;;;;;;;25.90;16.00;;;9.50;99.90;;;;;;4998255;28;20055;-79
2022/04/27 06:18:25;;;;;;;23.58;16.60;;;9.50;99.90;;;;;;4997439;28;20065;-79
2022/04/27 06:20:52;;;;;;;21.90;14.85;;;9.50;99.90;;;;;;4998963;28;20117;-79
2022/04/27 06:23:18;;;;;;;21.23;15.85;;;9.60;99.90;;;;;;4997074;28;20039;-79
2022/04/27 06:25:47;;;;;;;21.00;16.13;;;9.60;99.90;;;;;;4998335;28;20045;-79
2022/04/27 06:28:13;;;;;;;15.20;11.13;;;9.70;99.90;;;;;;4998745;28;20121;-79
2022/04/27 06:30:39;;;;;;;14.90;11.20;;;9.60;99.90;;;;;;4997921;28;20038;-79
2022/04/27 06:33:05;;;;;;;12.95;10.27;;;9.50;99.90;;;;;;4997620;28;20558;-79
2022/04/27 06:35:31;;;;;;;12.40;10.02;;;9.50;99.90;;;;;;4998312;28;20125;-79
2022/04/27 06:37:57;;;;;;;13.38;10.63;;;9.50;99.90;;;;;;4997337;28;20049;-79
2022/04/27 06:40:22;;;;;;;11.65;9.20;;;9.70;99.90;;;;;;4998227;28;20041;-79
2022/04/27 06:42:48;;;;;;;12.63;8.65;;;9.80;99.90;;;;;;4999763;28;20062;-79
2022/04/27 06:45:13;;;;;;;12.32;9.88;;;10.00;99.90;;;;;;4997780;28;20039;-79
2022/04/27 06:47:42;;;;;;;10.25;9.00;;;10.10;99.90;;;;;;4998308;28;20035;-79
2022/04/27 06:50:12;;;;;;;10.80;8.85;;;10.20;99.90;;;;;;4997931;28;20093;-79
2022/04/27 06:52:42;;;;;;;11.25;9.07;;;10.20;99.90;;;;;;4997973;28;20038;-79
2022/04/27 06:55:11;;;;;;;12.10;9.15;;;10.30;99.90;;;;;;4997413;28;20560;-79
2022/04/27 06:57:37;;;;;;;11.02;9.32;;;10.30;99.90;;;;;;4997382;28;20535;-79
2022/04/27 07:00:04;;;;;;;11.30;8.80;;;10.10;99.90;;;;;;4997264;28;20070;-79
2022/04/27 07:02:30;;;;;;;13.30;9.65;;;10.20;99.90;;;;;;4997414;28;20031;-79
2022/04/27 07:05:00;;;;;;;13.55;10.50;;;10.20;99.90;;;;;;4998876;28;20039;-80
2022/04/27 07:07:26;;;;;;;12.30;9.85;;;10.20;99.90;;;;;;4998157;28;20109;-81
2022/04/27 07:09:53;;;;;;;10.85;9.27;;;10.30;99.90;;;;;;5000042;28;20114;-80
2022/04/27 07:12:19;;;;;;;12.32;9.90;;;10.20;99.90;;;;;;4986797;28;20051;-80
2022/04/27 07:14:46;;;;;;;10.93;9.75;;;10.50;99.90;;;;;;4980487;28;20050;-81
2022/04/27 07:17:12;;;;;;;12.18;9.85;;;10.40;99.90;;;;;;4979217;28;20040;-81
2022/04/27 07:19:38;;;;;;;12.18;9.82;;;10.50;99.90;;;;;;4984416;28;20374;-79
2022/04/27 07:22:05;;;;;;;9.75;8.43;;;10.60;99.90;;;;;;4994320;28;20114;-81
2022/04/27 07:24:31;;;;;;;12.70;9.60;;;10.80;99.90;;;;;;4989153;28;20035;-81
2022/04/27 07:26:56;;;;;;;12.60;9.63;;;10.70;99.90;;;;;;4988340;28;20500;-82
2022/04/27 07:29:22;;;;;;;10.43;8.70;;;10.60;99.90;;;;;;4988786;28;20042;-82
2022/04/27 07:31:48;;;;;;;11.55;9.55;;;10.70;99.90;;;;;;4990795;28;20118;-81
2022/04/27 07:34:13;;;;;;;13.43;9.80;;;10.70;99.90;;;;;;4987319;28;20109;-82
2022/04/27 07:36:39;;;;;;;11.95;9.30;;;11.00;99.90;;;;;;4987819;28;20048;-79
2022/04/27 07:39:06;;;;;;;11.90;9.75;;;11.10;99.90;;;;;;4999383;28;20031;-79
2022/04/27 07:41:32;;;;;;;10.73;9.38;;;11.20;99.90;;;;;;4988647;28;20421;-79
2022/04/27 07:43:58;;;;;;;10.30;8.75;;;11.20;99.90;;;;;;4987623;28;20094;-77
2022/04/27 07:46:24;;;;;;;10.38;9.27;;;11.20;99.90;;;;;;4994221;28;20506;-81
2022/04/27 07:48:51;;;;;;;13.23;9.65;;;11.40;99.90;;;;;;4993234;28;20042;-81
2022/04/27 07:51:17;;;;;;;10.88;8.27;;;11.50;99.90;;;;;;4994088;28;20043;-82
2022/04/27 07:53:43;;;;;;;8.82;7.82;;;11.90;99.90;;;;;;4990004;28;20031;-80
2022/04/27 07:56:09;;;;;;;9.57;8.15;;;12.10;99.90;;;;;;4992980;28;20066;-81
2022/04/27 07:58:35;;;;;;;11.80;9.00;;;12.10;99.90;;;;;;5003867;28;20183;-81
2022/04/27 08:01:01;;;;;;;11.13;9.00;;;12.00;99.90;;;;;;5006170;28;20054;-81
2022/04/27 08:03:26;;;;;;;10.80;9.13;;;11.80;99.90;;;;;;5004683;28;20479;-81
2022/04/27 08:05:55;;;;;;;12.95;9.07;;;11.70;99.90;;;;;;4983530;28;20039;-81
2022/04/27 08:08:21;;;;;;;10.43;8.32;;;11.80;99.90;;;;;;4980891;28;20118;-82
2022/04/27 08:10:47;;;;;;;10.20;7.80;;;12.10;99.90;;;;;;4979936;28;20035;-81
2022/04/27 08:13:15;;;;;;;9.18;7.90;;;12.30;99.90;;;;;;4985522;28;20039;-81
2022/04/27 08:15:44;;;;;;;9.00;7.95;;;12.30;99.90;;;;;;4988534;28;20042;-81
2022/04/27 08:18:10;;;;;;;8.05;6.95;;;12.50;99.90;;;;;;4989065;28;20464;-82
2022/04/27 08:23:36;;;;;;;8.98;6.78;;;12.20;99.90;;;;;;4988964;28;20031;-82
2022/04/27 08:26:05;;;;;;;7.85;6.38;;;12.10;99.90;;;;;;4990751;28;20109;-82
2022/04/27 08:28:37;;;;;;;10.30;7.00;;;12.30;99.90;;;;;;4993327;28;20059;-82
2022/04/27 08:31:02;;;;;;;8.82;7.05;;;12.30;99.90;;;;;;4987108;28;20095;-82
2022/04/27 08:33:28;;;;;;;7.63;6.82;;;12.60;99.90;;;;;;4990063;28;20114;-82
2022/04/27 08:35:59;;;;;;;7.80;6.18;;;12.80;99.90;;;;;;4995896;28;20545;-82
2022/04/27 08:38:26;;;;;;;7.90;6.40;;;13.10;99.90;;;;;;4988426;28;20086;-81
2022/04/27 08:40:53;;;;;;;8.38;6.60;;;13.10;99.90;;;;;;4990750;28;20037;-80
2022/04/27 08:43:20;;;;;;;10.18;7.15;;;13.40;99.90;;;;;;4994302;28;20031;-81
2022/04/27 08:45:46;;;;;;;8.38;6.57;;;12.90;99.90;;;;;;5000016;28;20042;-81
2022/04/27 08:48:13;;;;;;;7.53;6.50;;;13.20;99.90;;;;;;4999029;28;20058;-81
2022/04/27 08:50:39;;;;;;;7.18;6.40;;;13.30;99.90;;;;;;4999496;28;20038;-82
2022/04/27 08:53:05;;;;;;;6.85;6.15;;;13.60;99.90;;;;;;4999536;28;20030;-81
2022/04/27 08:55:31;;;;;;;8.73;5.85;;;13.90;99.90;;;;;;4998109;28;20046;-81
2022/04/27 08:58:07;;;;;;;7.63;6.60;;;14.00;99.90;;;;;;5002806;28;20031;-81
2022/04/27 09:00:33;;;;;;;6.88;6.00;;;14.00;99.90;;;;;;5003029;28;20045;-80
2022/04/27 09:03:21;;;;;;;7.03;6.20;;;14.20;99.90;;;;;;5002817;28;20038;-81
2022/04/27 09:05:54;;;;;;;7.07;5.97;;;14.20;99.90;;;;;;5002475;28;20049;-82
2022/04/27 09:08:23;;;;;;;8.13;6.10;;;14.20;99.90;;;;;;5005501;28;20038;-81
2022/04/27 09:10:48;;;;;;;7.68;6.00;;;14.30;99.90;;;;;;5003347;28;20035;-81
2022/04/27 09:13:17;;;;;;;7.07;5.97;;;13.90;99.90;;;;;;5002686;28;20569;-81
2022/04/27 09:15:42;;;;;;;6.97;5.95;;;13.50;99.90;;;;;;5003791;28;20047;-81
2022/04/27 09:21:02;;;;;;;6.95;6.10;;;13.30;99.90;;;;;;4988002;28;20874;-82
2022/04/27 09:23:42;;;;;;;7.53;6.72;;;13.60;99.90;;;;;;4976509;28;20042;-82
2022/04/27 09:26:19;;;;;;;6.38;5.78;;;14.10;99.90;;;;;;4976483;28;20069;-82
2022/04/27 09:28:50;;;;;;;7.38;5.90;;;14.50;99.90;;;;;;4977630;28;20035;-81
2022/04/27 09:31:29;;;;;;;7.25;6.10;;;15.10;99.90;;;;;;4984456;28;20031;-81
2022/04/27 09:34:03;;;;;;;7.50;6.25;;;15.60;99.90;;;;;;4987200;28;20058;-82
2022/04/27 09:36:29;;;;;;;6.68;5.72;;;15.50;99.90;;;;;;4993796;28;20042;-82
2022/04/27 09:38:57;;;;;;;7.68;6.47;;;15.40;99.90;;;;;;4990634;28;20034;-82
2022/04/27 09:41:41;;;;;;;7.00;6.30;;;15.10;99.90;;;;;;4996710;28;20035;-81
2022/04/27 09:44:27;;;;;;;7.60;6.10;;;14.80;99.90;;;;;;4998901;28;20027;-82
2022/04/27 09:46:52;;;;;;;7.47;5.78;;;14.60;99.90;;;;;;5004027;28;20098;-81
2022/04/27 09:49:18;;;;;;;7.03;5.97;;;14.70;99.90;;;;;;4989891;28;20553;-80
2022/04/27 09:51:50;;;;;;;7.82;6.85;;;15.10;99.90;;;;;;4986672;28;20047;-81
2022/04/27 09:54:22;;;;;;;6.93;6.22;;;14.90;99.90;;;;;;4984823;28;20132;-82
2022/04/27 09:56:58;;;;;;;6.60;6.00;;;15.20;99.90;;;;;;4982509;28;20043;-82
2022/04/27 09:59:30;;;;;;;8.35;7.00;;;15.80;99.90;;;;;;4984682;28;20031;-82
2022/04/27 10:02:04;;;;;;;6.78;6.13;;;16.70;99.90;;;;;;4986635;28;20055;-83
2022/04/27 10:04:30;;;;;;;8.23;5.47;;;17.00;99.90;;;;;;4984772;28;20031;-80
2022/04/27 10:06:58;;;;;;;6.28;5.63;;;17.00;99.90;;;;;;4984931;28;20095;-80
2022/04/27 10:09:26;;;;;;;6.68;6.07;;;16.80;99.90;;;;;;4983216;28;20521;-80
2022/04/27 10:11:53;;;;;;;7.75;5.97;;;16.70;99.90;;;;;;4978787;28;20876;-82
2022/04/27 10:14:21;;;;;;;7.63;6.55;;;16.30;99.90;;;;;;4980734;28;20027;-80
2022/04/27 10:16:48;;;;;;;8.75;6.53;;;15.70;99.90;;;;;;4994160;23;20094;-77
2022/04/27 10:19:15;;;;;;;8.10;6.93;;;15.40;99.90;;;;;;4978787;28;20063;-79
2022/04/27 10:21:57;;;;;;;9.10;6.57;;;15.20;99.90;;;;;;4980590;28;20034;-77
2022/04/27 10:24:38;;;;;;;6.68;6.00;;;15.30;99.90;;;;;;4995375;28;20041;-78
2022/04/27 10:27:22;;;;;;;7.75;6.95;;;16.00;99.90;;;;;;4981862;28;20091;-78
2022/04/27 10:30:08;;;;;;;7.47;6.43;;;16.80;99.90;;;;;;4978500;28;20499;-78
2022/04/27 10:32:41;;;;;;;8.80;6.50;;;17.30;99.90;;;;;;4980054;28;20035;-78
2022/04/27 10:35:17;;;;;;;7.90;6.25;;;17.40;99.90;;;;;;4979734;28;20041;-78
2022/04/27 10:37:57;;;;;;;6.90;6.30;;;17.40;99.90;;;;;;4980551;28;20038;-78
2022/04/27 10:40:29;;;;;;;7.32;6.38;;;17.30;99.50;;;;;;4980358;28;20043;-77
2022/04/27 10:43:00;;;;;;;6.20;5.60;;;17.90;99.90;;;;;;4977776;28;20032;-79
2022/04/27 10:45:29;;;;;;;6.97;5.95;;;18.90;98.90;;;;;;4976641;28;20038;-77
2022/04/27 10:48:03;;;;;;;6.63;5.95;;;19.80;93.80;;;;;;4978299;28;20042;-75
2022/04/27 10:50:33;;;;;;;6.07;5.47;;;19.70;92.50;;;;;;4978343;28;20200;-77
2022/04/27 10:53:20;;;;;;;6.30;5.70;;;19.30;93.80;;;;;;4979660;28;20032;-75
2022/04/27 10:55:50;;;;;;;6.50;5.90;;;18.70;92.90;;;;;;4976016;28;20051;-77
2022/04/27 10:58:19;;;;;;;5.82;5.32;;;18.30;93.40;;;;;;4979209;28;20447;-78
2022/04/27 11:01:02;;;;;;;7.00;6.00;;;17.50;94.70;;;;;;4976356;28;20776;-77
2022/04/27 11:03:35;;;;;;;7.45;6.10;;;16.90;96.40;;;;;;4978024;28;20027;-76
2022/04/27 11:06:09;;;;;;;7.18;6.10;;;16.80;96.60;;;;;;4978033;28;20039;-77
2022/04/27 11:08:53;;;;;;;7.30;6.55;;;16.40;98.30;;;;;;4978997;28;20122;-78
2022/04/27 11:11:22;;;;;;;6.55;5.88;;;16.10;98.20;;;;;;4979516;28;20039;-79
2022/04/27 11:13:48;;;;;;;8.65;6.88;;;16.00;98.80;;;;;;4978793;28;20047;-79
2022/04/27 11:16:14;;;;;;;7.15;6.30;;;16.30;99.20;;;;;;4976195;28;20047;-78
2022/04/27 11:18:57;;;;;;;7.78;6.40;;;17.20;98.10;;;;;;4977168;28;20035;-78
2022/04/27 11:21:29;;;;;;;7.03;6.32;;;17.70;98.30;;;;;;4978641;28;20557;-77
2022/04/27 11:23:57;;;;;;;8.00;6.30;;;17.50;96.30;;;;;;4979216;28;20035;-78
2022/04/27 11:26:26;;;;;;;7.43;6.72;;;17.30;96.40;;;;;;4978508;28;20505;-79
2022/04/27 11:28:54;;;;;;;8.50;6.68;;;17.30;96.10;;;;;;4980313;28;20090;-79
2022/04/27 11:31:20;;;;;;;7.60;6.88;;;16.90;96.70;;;;;;4979228;28;20031;-78
2022/04/27 11:33:47;;;;;;;27.58;18.33;;;16.90;96.40;;;;;;4978551;28;20110;-78
2022/04/27 11:36:28;;;;;;;8.18;7.20;;;16.70;96.50;;;;;;4979591;28;20035;-78
2022/04/27 11:38:55;;;;;;;7.00;5.93;;;16.90;96.60;;;;;;4982190;28;20039;-78
2022/04/27 11:41:23;;;;;;;7.78;6.43;;;16.60;96.90;;;;;;4980002;28;20527;-78
2022/04/27 11:43:50;;;;;;;7.80;6.97;;;16.50;97.10;;;;;;4977967;28;20071;-77
2022/04/27 11:46:17;;;;;;;7.18;6.47;;;16.70;97.80;;;;;;4977222;28;20041;-79
2022/04/27 11:48:53;;;;;;;7.95;7.03;;;17.20;97.10;;;;;;4979022;28;20035;-78
2022/04/27 11:51:19;;;;;;;7.53;6.55;;;17.50;97.40;;;;;;4978772;28;20525;-79
2022/04/27 11:53:49;;;;;;;6.72;6.03;;;17.70;96.30;;;;;;4976868;28;20036;-78
2022/04/27 11:56:17;;;;;;;6.65;5.95;;;18.30;93.20;;;;;;4977617;28;20061;-78
2022/04/27 11:58:46;;;;;;;7.05;6.35;;;18.60;93.20;;;;;;4976480;28;20035;-80
2022/04/27 12:01:22;;;;;;;8.00;6.70;;;18.90;90.70;;;;;;4977847;28;20111;-78
2022/04/27 12:03:49;;;;;;;6.82;5.72;;;19.10;93.30;;;;;;4975730;28;20525;-77
2022/04/27 12:06:19;;;;;;;7.45;6.40;;;19.30;91.50;;;;;;4977738;28;20062;-79
2022/04/27 12:08:45;;;;;;;6.53;5.70;;;19.50;91.90;;;;;;4977572;28;20031;-78
2022/04/27 12:11:19;;;;;;;7.28;5.68;;;19.50;88.90;;;;;;4977721;28;20480;-77
2022/04/27 12:13:45;;;;;;;7.00;6.30;;;19.60;89.10;;;;;;4977570;28;20032;-79
2022/04/27 12:16:10;;;;;;;8.68;5.80;;;20.60;90.70;;;;;;4976919;28;20039;-77
2022/04/27 12:18:36;;;;;;;6.63;6.03;;;20.90;82.50;;;;;;4978359;28;20058;-78
2022/04/27 12:21:27;;;;;;;6.30;5.70;;;20.60;83.00;;;;;;4977760;28;20066;-77
2022/04/27 12:23:56;;;;;;;6.72;5.80;;;20.10;81.70;;;;;;4978579;28;20059;-79
2022/04/27 12:26:25;;;;;;;7.38;5.97;;;20.00;84.10;;;;;;4977502;28;20090;-79
2022/04/27 12:28:51;;;;;;;7.53;6.22;;;20.20;87.70;;;;;;4977676;28;20071;-77
2022/04/27 12:31:21;;;;;;;6.20;5.60;;;20.10;83.60;;;;;;4978944;28;20063;-77
2022/04/27 12:33:48;;;;;;;5.82;5.22;;;19.60;87.80;;;;;;4978018;28;20118;-78
2022/04/27 12:39:20;;;;;;;6.18;5.57;;;20.00;85.00;;;;;;4980371;28;20055;-77
2022/04/27 12:41:47;;;;;;;6.65;6.05;;;20.60;83.20;;;;;;4978032;28;20043;-78
2022/04/27 12:44:12;;;;;;;8.60;5.65;;;21.40;83.90;;;;;;4977571;28;20122;-77
2022/04/27 12:46:58;;;;;;;6.18;5.45;;;22.00;84.10;;;;;;4978084;28;20083;-78
2022/04/27 12:49:32;;;;;;;6.28;5.32;;;22.40;78.50;;;;;;4979433;28;20031;-77
2022/04/27 12:52:26;;;;;;;5.95;5.35;;;21.80;77.10;;;;;;4977788;28;20035;-79
2022/04/27 12:55:01;;;;;;;8.73;5.65;;;21.20;76.40;;;;;;4979956;28;20485;-77
2022/04/27 12:57:52;;;;;;;5.10;4.60;;;20.50;77.70;;;;;;4979329;28;20039;-78
2022/04/27 13:00:20;;;;;;;6.10;4.93;;;20.60;79.20;;;;;;4979923;28;20043;-78
2022/04/27 13:02:46;;;;;;;7.10;5.60;;;20.60;78.20;;;;;;4982259;28;20027;-78
2022/04/27 13:05:12;;;;;;;6.75;5.40;;;20.90;81.00;;;;;;4978755;28;20490;-78
2022/04/27 13:07:40;;;;;;;6.50;5.00;;;22.00;77.40;;;;;;4981566;28;20027;-78
2022/04/27 13:12:52;;;;;;;5.60;4.75;;;23.00;73.80;;;;;;4980995;28;20031;-79
2022/04/27 13:15:18;;;;;;;5.90;5.30;;;22.80;72.10;;;;;;4979193;28;20036;-79
2022/04/27 13:17:44;;;;;;;7.55;4.97;;;22.10;71.40;;;;;;4978704;28;20031;-79
2022/04/27 13:20:10;;;;;;;7.00;4.75;;;21.80;76.00;;;;;;4981304;28;20046;-79
2022/04/27 13:22:37;;;;;;;6.00;4.90;;;21.30;74.00;;;;;;4985191;28;20448;-80
2022/04/27 13:25:09;;;;;;;6.18;4.65;;;20.70;75.50;;;;;;4980231;28;20116;-80
2022/04/27 13:27:35;;;;;;;5.25;4.75;;;20.30;75.60;;;;;;4980687;28;20031;-79
2022/04/27 13:30:00;;;;;;;5.80;4.75;;;19.80;77.60;;;;;;4979782;28;20047;-81
2022/04/27 13:32:26;;;;;;;5.95;4.25;;;20.00;77.20;;;;;;4979091;28;20031;-78
2022/04/27 13:34:52;;;;;;;4.25;3.85;;;20.40;74.80;;;;;;4978621;28;20422;-78
2022/04/27 13:37:17;;;;;;;4.85;4.05;;;20.80;73.10;;;;;;4977604;28;20083;-77
2022/04/27 13:39:43;;;;;;;5.53;4.30;;;21.20;73.60;;;;;;4977934;28;20051;-76
2022/04/27 13:42:09;;;;;;;5.00;4.38;;;21.40;71.00;;;;;;4972230;28;20398;-76
2022/04/27 13:44:34;;;;;;;5.20;4.70;;;21.50;74.70;;;;;;4961713;28;20032;-79
2022/04/27 13:47:01;;;;;;;6.72;4.40;;;21.40;72.20;;;;;;4959514;28;20032;-77
2022/04/27 13:49:26;;;;;;;9.98;4.82;;;20.50;73.60;;;;;;4959238;28;20044;-83
2022/04/27 13:51:52;;;;;;;5.72;5.13;;;19.70;76.80;;;;;;4960888;28;20039;-79
2022/04/27 13:54:18;;;;;;;6.13;4.45;;;18.90;77.40;;;;;;4959918;28;20098;-79
2022/04/27 13:56:44;;;;;;;7.10;5.28;;;18.60;80.20;;;;;;4959040;28;20074;-77
2022/04/27 13:59:11;;;;;;;6.72;4.45;;;18.60;80.50;;;;;;4959344;28;20059;-78
2022/04/27 14:01:37;;;;;;;5.13;4.63;;;18.60;80.40;;;;;;4959229;28;20571;-80
2022/04/27 14:04:03;;;;;;;5.55;4.70;;;18.40;81.20;;;;;;4958858;28;20047;-78
2022/04/27 14:06:29;;;;;;;6.03;4.75;;;18.30;82.70;;;;;;4969048;28;20389;-78
2022/04/27 14:08:54;;;;;;;5.30;4.80;;;17.90;81.60;;;;;;4977339;28;20072;-75
2022/04/27 14:14:07;;;;;;;5.95;4.50;;;18.10;80.70;;;;;;4978792;28;20070;-79
2022/04/27 14:19:20;;;;;;;6.30;4.82;;;18.30;81.70;;;;;;4961016;28;20036;-78
2022/04/27 14:21:45;;;;;;;5.30;4.53;;;18.30;80.50;;;;;;4959560;28;20036;-78
2022/04/27 14:24:14;;;;;;;5.05;4.20;;;18.50;79.70;;;;;;4959755;28;20031;-84
2022/04/27 14:26:40;;;;;;;7.57;4.57;;;18.60;78.50;;;;;;4959443;28;20039;-78
2022/04/27 14:29:07;;;;;;;5.32;4.55;;;18.60;78.20;;;;;;4960743;28;20073;-79
2022/04/27 14:31:32;;;;;;;5.50;4.53;;;18.70;81.00;;;;;;4958307;28;20031;-78
2022/04/27 14:33:58;;;;;;;5.13;4.43;;;19.10;77.70;;;;;;4960855;28;20031;-79
2022/04/27 14:36:25;;;;;;;6.47;4.22;;;19.40;78.50;;;;;;4960426;28;20040;-78
2022/04/27 14:38:51;;;;;;;8.35;4.70;;;20.10;77.40;;;;;;4960275;28;20413;-77
2022/04/27 14:41:18;;;;;;;10.50;6.63;;;20.50;78.20;;;;;;4958488;28;20877;-78
2022/04/27 14:43:44;;;;;;;4.55;4.15;;;20.50;74.60;;;;;;4960549;28;20119;-78
2022/04/27 14:46:10;;;;;;;8.13;3.88;;;20.20;72.50;;;;;;4960928;28;20095;-79
2022/04/27 14:48:35;;;;;;;4.65;3.80;;;20.30;74.70;;;;;;4960648;28;20035;-78
2022/04/27 14:51:04;;;;;;;5.35;4.15;;;20.40;72.80;;;;;;4961098;28;20147;-79
2022/04/27 14:53:29;;;;;;;4.80;3.90;;;20.00;73.50;;;;;;4960905;28;20051;-82
2022/04/27 14:55:58;;;;;;;4.03;3.42;;;19.70;73.70;;;;;;4962558;28;20488;-79
2022/04/27 14:58:23;;;;;;;3.80;3.50;;;19.70;71.50;;;;;;4964063;28;20480;-79
2022/04/27 15:00:50;;;;;;;4.53;3.70;;;19.70;71.40;;;;;;4961778;28;20031;-79
2022/04/27 15:03:19;;;;;;;6.70;3.60;;;19.60;72.00;;;;;;4963576;28;20115;-79
2022/04/27 15:05:45;;;;;;;3.88;3.55;;;19.70;71.50;;;;;;4961449;28;20039;-78
2022/04/27 15:08:10;;;;;;;3.40;3.10;;;19.90;73.20;;;;;;4957347;28;20371;-78
2022/04/27 15:10:36;;;;;;;4.03;3.22;;;19.60;70.00;;;;;;4959742;28;20047;-78
2022/04/27 15:13:05;;;;;;;5.45;3.65;;;19.60;72.50;;;;;;4958222;28;20084;-78
2022/04/27 15:15:31;;;;;;;4.63;3.40;;;19.50;74.30;;;;;;4959207;28;20135;-77
2022/04/27 15:17:56;;;;;;;5.82;3.90;;;19.60;71.70;;;;;;4960291;28;20143;-78
2022/04/27 15:23:06;;;;;;;4.68;3.60;;;20.70;71.60;;;;;;4961004;28;20043;-78
2022/04/27 15:25:32;;;;;;;5.22;3.45;;;22.70;70.80;;;;;;4958223;28;20031;-79
2022/04/27 15:27:57;;;;;;;4.70;3.10;;;24.50;67.10;;;;;;4966276;28;20047;-78
2022/04/27 15:30:27;;;;;;;3.92;3.50;;;24.50;58.90;;;;;;4978107;28;20027;-79
2022/04/27 15:32:55;;;;;;;4.10;3.70;;;26.70;56.70;;;;;;4974709;28;20039;-80
2022/04/27 15:35:24;;;;;;;5.72;3.90;;;27.70;55.50;;;;;;4970677;28;20035;-76
2022/04/27 15:37:51;;;;;;;3.95;3.53;;;29.00;52.30;;;;;;4968730;28;20514;-78
2022/04/27 15:40:17;;;;;;;4.22;3.75;;;29.20;52.80;;;;;;4961012;28;20066;-76
2022/04/27 15:42:44;;;;;;;3.85;3.45;;;29.20;50.50;;;;;;4968404;28;20032;-79
2022/04/27 15:45:10;;;;;;;3.53;3.08;;;28.80;49.30;;;;;;4967924;28;20136;-75
2022/04/27 15:47:36;;;;;;;3.40;3.10;;;28.30;47.10;;;;;;4966668;28;20063;-78
2022/04/27 15:50:03;;;;;;;3.38;3.08;;;26.50;52.90;;;;;;4968767;28;20071;-75
2022/04/27 15:52:31;;;;;;;3.13;2.90;;;25.50;52.20;;;;;;4960301;28;20565;-77
2022/04/27 15:54:56;;;;;;;3.05;2.80;;;26.00;51.90;;;;;;4957628;28;20040;-77
2022/04/27 15:57:25;;;;;;;3.38;3.08;;;25.90;51.70;;;;;;4965433;28;20036;-81
2022/04/27 15:59:51;;;;;;;3.50;3.20;;;26.40;52.70;;;;;;4963890;28;20114;-77
2022/04/27 16:02:16;;;;;;;4.45;3.40;;;25.60;52.90;;;;;;4963435;28;20042;-76
2022/04/27 16:04:42;;;;;;;4.80;3.85;;;24.70;54.10;;;;;;4960184;28;20044;-77
2022/04/27 16:07:08;;;;;;;4.93;4.00;;;23.90;56.50;;;;;;4972427;28;20035;-77
2022/04/27 16:09:35;;;;;;;5.47;3.95;;;22.80;57.60;;;;;;4970516;28;20035;-77
2022/04/27 16:12:02;;;;;;;4.80;3.85;;;22.30;59.50;;;;;;4968010;28;20119;-76
2022/04/27 16:14:30;;;;;;;5.63;4.10;;;22.00;62.10;;;;;;4968016;28;20043;-76
2022/04/27 16:16:55;;;;;;;4.78;4.25;;;21.80;61.40;;;;;;4998597;23;20106;-79
2022/04/27 16:19:21;;;;;;;4.68;4.28;;;23.00;61.50;;;;;;4994528;28;20500;-78
2022/04/27 16:24:31;;;;;;;6.85;4.68;;;26.50;55.10;;;;;;5009933;28;20121;-81
2022/04/27 16:26:57;;;;;;;5.75;4.70;;;27.30;52.30;;;;;;5000712;28;20129;-80
2022/04/27 16:29:24;;;;;;;4.72;4.20;;;28.10;51.40;;;;;;5012180;28;20071;-80
2022/04/27 16:31:53;;;;;;;5.15;4.55;;;27.40;51.40;;;;;;5007049;28;20034;-82
2022/04/27 16:34:20;;;;;;;6.88;4.25;;;27.40;50.80;;;;;;5001730;28;20030;-80
2022/04/27 16:36:46;;;;;;;5.78;4.00;;;27.60;51.20;;;;;;4995998;28;20137;-78
2022/04/27 16:39:12;;;;;;;4.63;4.22;;;28.70;51.50;;;;;;5009528;28;20040;-79
2022/04/27 16:41:40;;;;;;;5.28;4.20;;;28.40;49.70;;;;;;4994800;28;20399;-81
2022/04/27 16:44:05;;;;;;;4.18;3.63;;;28.00;50.50;;;;;;5001304;28;20046;-81
2022/04/27 16:46:31;;;;;;;3.88;3.47;;;27.20;50.80;;;;;;4978604;28;20543;-81
2022/04/27 16:48:56;;;;;;;4.13;3.40;;;26.90;50.40;;;;;;5009653;28;20030;-81
2022/04/27 16:51:22;;;;;;;3.95;3.50;;;27.40;52.00;;;;;;5001116;28;20400;-81
2022/04/27 16:53:49;;;;;;;7.85;4.20;;;27.80;50.70;;;;;;5010979;28;20493;-79
2022/04/27 16:56:15;;;;;;;4.35;3.95;;;26.30;51.20;;;;;;5005881;28;20089;-81
2022/04/27 16:58:40;;;;;;;7.57;3.92;;;25.40;52.70;;;;;;4992764;28;20070;-80
2022/04/27 17:01:11;;;;;;;4.93;4.10;;;24.70;53.90;;;;;;5013915;28;20042;-81
2022/04/27 17:03:38;;;;;;;5.63;3.97;;;23.30;56.50;;;;;;4987355;28;20475;-79
2022/04/27 17:06:10;;;;;;;4.93;4.13;;;22.20;60.20;;;;;;5010399;28;20047;-79
2022/04/27 17:08:41;;;;;;;5.32;4.22;;;20.90;66.00;;;;;;5010344;28;20124;-80
2022/04/27 17:11:10;;;;;;;4.50;4.00;;;20.20;67.20;;;;;;5000684;28;20123;-78
2022/04/27 17:13:37;;;;;;;5.55;4.35;;;19.50;68.90;;;;;;4995156;28;20571;-79
2022/04/27 17:16:04;;;;;;;6.63;4.60;;;19.10;71.10;;;;;;5005654;28;20113;-80